createdAt,value
2019-03-12T00:00:37.250Z,11.60
2019-03-12T00:03:09.799Z,11.30
2019-03-12T00:05:40.705Z,13.80
2019-03-12T00:08:11.811Z,12.23
2019-03-12T00:10:43.484Z,14.90
2019-03-12T00:13:14.473Z,14.87
2019-03-12T00:15:45.412Z,13.87
2019-03-12T00:18:16.340Z,17.07
2019-03-12T00:20:47.240Z,19.37
2019-03-12T00:23:18.972Z,17.73
2019-03-12T00:25:49.864Z,21.03
2019-03-12T00:28:20.795Z,24.17
2019-03-12T00:30:51.710Z,24.67
2019-03-12T00:33:22.641Z,25.30
2019-03-12T00:35:53.538Z,24.30
2019-03-12T00:38:24.491Z,27.03
2019-03-12T00:40:55.385Z,25.20
2019-03-12T00:43:26.312Z,27.83
2019-03-12T00:45:57.215Z,24.33
2019-03-12T00:48:28.993Z,23.80
2019-03-12T00:50:59.901Z,26.23
2019-03-12T00:53:31.666Z,24.57
2019-03-12T00:56:02.559Z,25.73
2019-03-12T00:58:33.490Z,21.67
2019-03-12T01:01:04.385Z,24.83
2019-03-12T01:03:35.319Z,25.27
2019-03-12T01:06:06.227Z,26.37
2019-03-12T01:08:37.175Z,26.70
2019-03-12T01:11:08.081Z,23.93
2019-03-12T01:13:39.005Z,22.17
2019-03-12T01:16:09.922Z,21.50
2019-03-12T01:18:40.843Z,22.87
2019-03-12T01:21:11.747Z,20.33
2019-03-12T01:23:43.478Z,21.73
2019-03-12T01:26:14.382Z,16.17
2019-03-12T01:28:45.301Z,15.73
2019-03-12T01:31:16.196Z,20.73
2019-03-12T01:33:47.124Z,15.37
2019-03-12T01:36:18.024Z,14.80
2019-03-12T01:38:49.008Z,14.77
2019-03-12T01:41:19.896Z,17.03
2019-03-12T01:43:50.830Z,11.70
2019-03-12T01:46:21.724Z,15.50
2019-03-12T01:48:52.714Z,13.80
2019-03-12T01:51:23.712Z,12.50
2019-03-12T01:53:54.652Z,13.00
2019-03-12T01:56:25.553Z,11.07
2019-03-12T01:58:56.467Z,14.97
2019-03-12T02:01:27.371Z,12.43
2019-03-12T02:03:59.058Z,16.47
2019-03-12T02:06:29.956Z,11.77
2019-03-12T02:09:01.790Z,10.80
2019-03-12T02:11:32.681Z,14.90
2019-03-12T02:14:06.692Z,14.43
2019-03-12T02:16:37.568Z,9.00
2019-03-12T02:19:27.168Z,7.40
2019-03-12T02:21:58.040Z,7.80
2019-03-12T02:24:29.342Z,5.57
2019-03-12T02:27:00.231Z,2.13
2019-03-12T02:29:31.163Z,2.10
2019-03-12T02:32:02.037Z,3.00
2019-03-12T02:34:32.954Z,5.33
2019-03-12T02:37:03.844Z,2.53
2019-03-12T02:39:34.799Z,2.53
2019-03-12T02:42:05.690Z,4.20
2019-03-12T02:44:36.602Z,3.00
2019-03-12T02:47:07.476Z,2.23
2019-03-12T02:49:38.386Z,2.70
2019-03-12T02:52:09.278Z,1.70
2019-03-12T02:54:41.126Z,2.53
2019-03-12T02:57:12.004Z,2.43
2019-03-12T02:59:42.950Z,2.10
2019-03-12T03:02:13.845Z,4.30
2019-03-12T03:04:44.763Z,2.93
2019-03-12T03:07:20.252Z,2.77
2019-03-12T03:09:51.198Z,3.53
2019-03-12T03:12:22.098Z,3.87
2019-03-12T03:14:53.007Z,1.80
2019-03-12T03:17:23.963Z,2.53
2019-03-12T03:19:54.880Z,2.63
2019-03-12T03:22:25.766Z,2.90
2019-03-12T03:24:57.722Z,2.27
2019-03-12T03:27:29.550Z,3.00
2019-03-12T03:30:01.031Z,3.47
2019-03-12T03:32:31.967Z,3.60
2019-03-12T03:35:02.888Z,4.50
2019-03-12T03:37:33.767Z,6.57
2019-03-12T03:40:06.807Z,5.07
2019-03-12T03:42:37.707Z,5.70
2019-03-12T03:45:09.716Z,4.87
2019-03-12T03:47:40.618Z,3.33
2019-03-12T03:50:13.618Z,3.07
2019-03-12T03:52:44.550Z,5.90
2019-03-12T03:55:21.643Z,4.67
2019-03-12T03:57:52.620Z,4.57
2019-03-12T04:00:25.184Z,6.83
2019-03-12T04:02:56.064Z,9.10
2019-03-12T04:05:26.995Z,8.10
2019-03-12T04:07:57.890Z,8.87
2019-03-12T04:10:29.822Z,6.80
2019-03-12T04:13:00.759Z,6.13
2019-03-12T04:15:31.831Z,6.53
2019-03-12T04:18:02.824Z,6.23
2019-03-12T04:20:33.782Z,7.23
2019-03-12T04:23:04.670Z,7.83
2019-03-12T04:25:38.072Z,8.30
2019-03-12T04:28:08.963Z,9.73
2019-03-12T04:30:39.891Z,11.57
2019-03-12T04:33:32.693Z,7.73
2019-03-12T04:36:03.674Z,7.77
2019-03-12T04:38:34.576Z,8.23
2019-03-12T04:41:07.182Z,7.30
2019-03-12T04:43:38.074Z,9.10
2019-03-12T04:46:09.017Z,9.87
2019-03-12T04:48:39.898Z,7.97
2019-03-12T04:51:10.812Z,6.77
2019-03-12T04:53:41.701Z,7.50
2019-03-12T04:56:13.711Z,10.97
2019-03-12T04:58:44.608Z,11.07
2019-03-12T05:01:15.594Z,8.93
2019-03-12T05:03:46.486Z,12.77
2019-03-12T05:06:19.797Z,15.63
2019-03-12T05:08:50.008Z,17.30
2019-03-12T05:11:21.024Z,23.53
2019-03-12T05:14:18.316Z,12.50
2019-03-12T05:16:50.076Z,8.93
2019-03-12T05:19:20.962Z,12.47
2019-03-12T05:21:51.899Z,14.47
2019-03-12T05:24:22.792Z,13.47
2019-03-12T05:26:54.576Z,13.57
2019-03-12T05:29:25.484Z,19.17
2019-03-12T05:31:56.413Z,20.90
2019-03-12T05:34:27.317Z,28.17
2019-03-12T05:36:58.238Z,21.40
2019-03-12T05:39:29.135Z,21.80
2019-03-12T05:42:00.919Z,21.73
2019-03-12T05:44:31.829Z,23.23
2019-03-12T05:47:02.766Z,17.07
2019-03-12T05:49:33.668Z,17.87
2019-03-12T05:52:04.590Z,10.23
2019-03-12T05:54:35.489Z,10.73
2019-03-12T05:57:06.525Z,7.57
2019-03-12T05:59:37.445Z,4.23
2019-03-12T06:02:08.365Z,5.90
2019-03-12T06:04:44.941Z,3.53
2019-03-12T06:07:15.866Z,2.73
2019-03-12T06:09:46.749Z,3.87
2019-03-12T06:12:18.499Z,2.33
2019-03-12T06:14:50.221Z,3.77
2019-03-12T06:17:21.142Z,5.30
2019-03-12T06:19:52.032Z,8.47
2019-03-12T06:22:22.946Z,5.70
2019-03-12T06:24:53.906Z,8.07
2019-03-12T06:27:25.838Z,19.43
2019-03-12T06:29:56.739Z,12.00
2019-03-12T06:32:29.294Z,4.40
2019-03-12T06:35:01.843Z,4.87
2019-03-12T06:37:34.388Z,7.27
2019-03-12T06:40:12.076Z,13.00
2019-03-12T06:42:54.482Z,19.33
2019-03-12T06:45:33.023Z,9.97
2019-03-12T06:48:05.590Z,8.80
2019-03-12T06:50:53.377Z,11.40
2019-03-12T06:53:34.864Z,10.70
2019-03-12T06:56:09.873Z,12.50
2019-03-12T06:58:45.482Z,22.60
2019-03-12T07:01:34.444Z,4.17
2019-03-12T07:04:23.321Z,12.97
2019-03-12T07:07:12.827Z,5.13
2019-03-12T07:09:57.928Z,6.80
2019-03-12T07:12:45.496Z,8.90
2019-03-12T07:15:35.802Z,11.23
2019-03-12T07:18:14.157Z,19.80
2019-03-12T07:20:46.733Z,9.83
2019-03-12T07:23:19.281Z,6.03
2019-03-12T07:25:54.800Z,15.77
2019-03-12T07:28:50.188Z,29.03
2019-03-12T07:31:31.069Z,22.87
2019-03-12T07:34:10.036Z,20.47
2019-03-12T07:36:48.598Z,31.80
2019-03-12T07:39:26.869Z,22.90
2019-03-12T07:42:05.517Z,5.53
2019-03-12T07:44:38.050Z,5.90
2019-03-12T07:47:16.357Z,19.30
2019-03-12T07:50:05.191Z,5.03
2019-03-12T07:52:40.471Z,5.83
2019-03-12T07:55:13.012Z,6.27
2019-03-12T07:57:54.322Z,8.13
2019-03-12T08:00:41.887Z,6.23
2019-03-12T08:03:15.539Z,14.27
2019-03-12T08:06:03.348Z,6.17
2019-03-12T08:08:52.354Z,7.03
2019-03-12T08:11:27.843Z,6.03
2019-03-12T08:14:16.748Z,20.80
2019-03-12T08:16:52.881Z,15.50
2019-03-12T08:19:41.322Z,43.57
2019-03-12T08:22:25.701Z,21.37
2019-03-12T08:25:07.457Z,33.30
2019-03-12T08:27:55.023Z,7.03
2019-03-12T08:30:27.586Z,20.63
2019-03-12T08:33:02.824Z,7.20
2019-03-12T08:35:45.456Z,5.77
2019-03-12T08:38:21.086Z,18.57
2019-03-12T08:41:08.958Z,6.87
2019-03-12T08:43:41.498Z,34.13
2019-03-12T08:46:30.160Z,12.50
2019-03-12T08:49:05.406Z,7.53
2019-03-12T08:51:40.922Z,9.10
2019-03-12T08:54:28.806Z,24.73
2019-03-12T08:57:01.384Z,29.47
2019-03-12T08:59:50.022Z,33.20
2019-03-12T09:02:28.426Z,23.50
2019-03-12T09:05:00.982Z,14.67
2019-03-12T09:07:43.331Z,14.97
2019-03-12T09:10:21.717Z,25.00
2019-03-12T09:13:00.465Z,29.00
2019-03-12T09:15:33.114Z,12.50
2019-03-12T09:18:17.618Z,15.13
2019-03-12T09:20:56.184Z,34.93
2019-03-12T09:23:45.212Z,53.90
2019-03-12T09:26:28.250Z,18.30
2019-03-12T09:29:12.791Z,54.20
2019-03-12T09:31:48.050Z,13.47
2019-03-12T09:34:23.364Z,4.87
2019-03-12T09:37:04.864Z,5.60
2019-03-12T09:39:55.504Z,7.43
2019-03-12T09:42:28.035Z,8.20
2019-03-12T09:45:03.420Z,8.10
2019-03-12T09:47:35.945Z,7.33
2019-03-12T09:50:22.748Z,9.13
2019-03-12T09:53:00.987Z,7.93
2019-03-12T09:55:34.441Z,8.03
2019-03-12T09:58:06.979Z,6.73
2019-03-12T10:00:51.561Z,5.87
2019-03-12T10:03:24.092Z,6.77
2019-03-12T10:06:00.214Z,6.83
2019-03-12T10:08:35.479Z,7.90
2019-03-12T10:11:28.205Z,11.17
2019-03-12T10:14:06.810Z,8.37
2019-03-12T10:16:39.383Z,8.80
2019-03-12T10:19:15.628Z,8.30
2019-03-12T10:21:50.885Z,5.33
2019-03-12T10:24:23.409Z,4.63
2019-03-12T10:27:12.156Z,4.77
2019-03-12T10:29:44.691Z,3.93
2019-03-12T10:32:32.487Z,3.20
2019-03-12T10:35:08.229Z,18.43
2019-03-12T10:37:43.504Z,15.53
2019-03-12T10:40:24.784Z,9.43
2019-03-12T10:43:03.907Z,4.57
2019-03-12T10:45:45.820Z,3.33
2019-03-12T10:48:18.008Z,3.93
2019-03-12T10:50:48.900Z,7.27
2019-03-12T10:53:19.826Z,5.57
2019-03-12T10:55:50.725Z,6.57
2019-03-12T10:58:21.710Z,4.43
2019-03-12T11:00:52.668Z,9.57
2019-03-12T11:03:23.591Z,13.80
2019-03-12T11:05:54.484Z,5.50
2019-03-12T11:08:25.406Z,4.53
2019-03-12T11:10:56.301Z,5.60
2019-03-12T11:13:27.239Z,25.37
2019-03-12T11:15:58.144Z,28.00
2019-03-12T11:18:29.090Z,6.13
2019-03-12T11:21:01.579Z,2.70
2019-03-12T11:23:32.490Z,4.67
2019-03-12T11:26:03.381Z,5.90
2019-03-12T11:28:35.217Z,6.80
2019-03-12T11:31:06.203Z,5.23
2019-03-12T11:33:37.126Z,4.17
2019-03-12T11:36:11.949Z,4.13
2019-03-12T11:38:45.087Z,6.07
2019-03-12T11:41:15.423Z,6.63
2019-03-12T11:43:47.171Z,7.30
2019-03-12T11:46:18.067Z,6.87
2019-03-12T11:48:49.140Z,5.97
2019-03-12T11:51:20.216Z,6.53
2019-03-12T11:53:51.139Z,6.10
2019-03-12T11:56:22.019Z,6.80
2019-03-12T11:58:53.141Z,10.53
2019-03-12T12:01:24.083Z,19.77
2019-03-12T12:03:55.021Z,18.57
2019-03-12T12:06:26.009Z,44.60
2019-03-12T12:08:56.922Z,24.33
2019-03-12T12:11:27.826Z,15.60
2019-03-12T12:13:58.787Z,12.43
2019-03-12T12:16:30.292Z,28.13
2019-03-12T12:19:01.212Z,15.70
2019-03-12T12:21:32.106Z,7.80
2019-03-12T12:24:03.097Z,9.60
2019-03-12T12:26:33.997Z,41.83
2019-03-12T12:29:05.922Z,79.90
2019-03-12T12:31:36.833Z,73.47
2019-03-12T12:34:07.761Z,42.17
2019-03-12T12:36:38.736Z,36.43
2019-03-12T12:39:09.669Z,20.67
2019-03-12T12:41:40.579Z,50.80
2019-03-12T12:44:12.378Z,25.13
2019-03-12T12:46:43.277Z,12.73
2019-03-12T12:49:14.207Z,16.37
2019-03-12T12:51:45.207Z,18.47
2019-03-12T12:54:16.133Z,17.93
2019-03-12T12:56:47.030Z,10.93
2019-03-12T12:59:18.857Z,13.87
2019-03-12T13:01:49.729Z,8.40
2019-03-12T13:04:20.729Z,8.73
2019-03-12T13:06:51.612Z,10.07
2019-03-12T13:09:22.551Z,8.57
2019-03-12T13:11:53.450Z,8.67
2019-03-12T13:14:26.921Z,8.47
2019-03-12T13:16:57.891Z,8.13
2019-03-12T13:19:28.839Z,10.13
2019-03-12T13:22:00.595Z,8.80
2019-03-12T13:24:31.505Z,11.00
2019-03-12T13:27:02.392Z,4.73
2019-03-12T13:29:34.296Z,8.27
2019-03-12T13:32:13.360Z,5.10
2019-03-12T13:34:37.886Z,10.60
2019-03-12T13:37:08.772Z,9.83
2019-03-12T13:39:39.690Z,7.27
2019-03-12T13:42:10.581Z,7.47
2019-03-12T13:44:41.574Z,9.77
2019-03-12T13:47:12.485Z,5.70
2019-03-12T13:49:43.386Z,4.47
2019-03-12T13:52:14.266Z,7.13
2019-03-12T13:54:45.215Z,6.37
2019-03-12T13:57:16.083Z,9.03
2019-03-12T13:59:47.922Z,8.37
2019-03-12T14:02:18.821Z,13.13
2019-03-12T14:04:49.813Z,13.80
2019-03-12T14:07:21.695Z,7.10
2019-03-12T14:09:52.618Z,9.50
2019-03-12T14:12:23.522Z,6.93
2019-03-12T14:14:54.468Z,8.00
2019-03-12T14:17:25.382Z,11.33
2019-03-12T14:19:56.298Z,9.63
2019-03-12T14:22:27.258Z,10.07
2019-03-12T14:24:58.419Z,8.00
2019-03-12T14:27:29.386Z,12.87
2019-03-12T14:30:01.446Z,18.57
2019-03-12T14:32:32.406Z,14.00
2019-03-12T14:35:03.344Z,17.03
2019-03-12T14:37:36.088Z,32.27
2019-03-12T14:40:07.239Z,15.40
2019-03-12T14:42:38.188Z,19.07
2019-03-12T14:45:14.288Z,16.93
2019-03-12T14:47:45.182Z,8.47
2019-03-12T14:50:18.172Z,11.07
2019-03-12T14:52:57.572Z,9.27
2019-03-12T14:55:28.483Z,9.07
2019-03-12T14:57:59.378Z,22.33
2019-03-12T15:00:31.416Z,17.43
2019-03-12T15:03:02.342Z,120.57
2019-03-12T15:05:33.283Z,69.30
2019-03-12T15:08:05.195Z,26.73
2019-03-12T15:10:36.117Z,25.13
2019-03-12T15:13:07.028Z,41.70
2019-03-12T15:15:38.935Z,41.23
2019-03-12T15:18:09.854Z,23.87
2019-03-12T15:20:40.809Z,37.97
2019-03-12T15:23:13.505Z,10.43
2019-03-12T15:25:44.431Z,11.23
2019-03-12T15:28:15.346Z,18.17
2019-03-12T15:30:47.946Z,20.13
2019-03-12T15:33:18.855Z,71.00
2019-03-12T15:35:49.789Z,42.57
2019-03-12T15:38:20.750Z,26.90
2019-03-12T15:40:51.684Z,26.63
2019-03-12T15:43:22.595Z,24.73
2019-03-12T15:45:55.233Z,25.43
2019-03-12T15:48:28.436Z,20.83
2019-03-12T15:50:59.366Z,30.10
2019-03-12T15:53:30.266Z,32.97
2019-03-12T15:56:01.195Z,46.53
2019-03-12T15:58:32.099Z,52.10
2019-03-12T16:01:07.196Z,38.00
2019-03-12T16:03:38.284Z,67.50
2019-03-12T16:06:09.305Z,33.03
2019-03-12T16:08:40.247Z,19.97
2019-03-12T16:11:11.185Z,19.93
2019-03-12T16:13:42.154Z,20.83
2019-03-12T16:16:13.226Z,20.03
2019-03-12T16:18:44.134Z,15.63
2019-03-12T16:21:15.163Z,18.60
2019-03-12T16:23:47.725Z,22.03
2019-03-12T16:26:18.677Z,23.30
2019-03-12T16:28:49.602Z,31.60
2019-03-12T16:31:21.567Z,27.60
2019-03-12T16:33:52.480Z,24.97
2019-03-12T16:36:23.912Z,24.00
2019-03-12T16:38:54.837Z,29.60
2019-03-12T16:41:30.954Z,33.20
2019-03-12T16:44:02.712Z,31.47
2019-03-12T16:46:34.648Z,20.33
2019-03-12T16:49:05.544Z,28.40
2019-03-12T16:51:36.880Z,34.97
2019-03-12T16:54:07.780Z,29.60
2019-03-12T16:56:45.010Z,32.17
2019-03-12T16:59:11.398Z,36.57
2019-03-12T17:01:43.177Z,41.60
2019-03-12T17:04:14.083Z,102.33
2019-03-12T17:06:45.093Z,96.27
2019-03-12T17:09:16.379Z,98.50
2019-03-12T17:11:47.298Z,81.43
2019-03-12T17:14:18.214Z,37.47
2019-03-12T17:16:50.020Z,56.93
2019-03-12T17:19:20.931Z,93.90
2019-03-12T17:21:51.975Z,105.63
2019-03-12T17:24:23.748Z,70.67
2019-03-12T17:26:54.746Z,64.67
2019-03-12T17:29:25.735Z,70.47
2019-03-12T17:31:57.552Z,81.87
2019-03-12T17:34:35.768Z,59.93
2019-03-12T17:37:01.101Z,57.87
2019-03-12T17:39:32.009Z,123.03
2019-03-12T17:42:02.957Z,85.00
2019-03-12T17:44:33.882Z,209.10
2019-03-12T17:47:05.697Z,181.50
2019-03-12T17:49:36.926Z,129.93
2019-03-12T17:52:07.934Z,92.03
2019-03-12T17:54:38.839Z,54.43
2019-03-12T17:57:09.873Z,44.37
2019-03-12T17:59:40.876Z,47.00
2019-03-12T18:02:13.676Z,45.40
2019-03-12T18:04:44.730Z,43.97
2019-03-12T18:07:15.687Z,59.10
2019-03-12T18:09:51.955Z,75.80
2019-03-12T18:12:22.970Z,155.17
2019-03-12T18:14:53.871Z,158.87
2019-03-12T18:17:25.767Z,78.30
2019-03-12T18:19:56.692Z,40.97
2019-03-12T18:22:27.713Z,75.23
2019-03-12T18:25:00.447Z,79.73
2019-03-12T18:27:31.382Z,104.60
2019-03-12T18:30:02.366Z,134.77
2019-03-12T18:32:34.990Z,131.33
2019-03-12T18:35:07.830Z,139.17
2019-03-12T18:37:38.780Z,118.67
2019-03-12T18:40:15.103Z,86.93
2019-03-12T18:42:46.058Z,69.23
2019-03-12T18:45:22.888Z,61.43
2019-03-12T18:47:54.770Z,58.77
2019-03-12T18:50:25.797Z,62.47
2019-03-12T18:52:56.827Z,78.40
2019-03-12T18:55:33.537Z,98.53
2019-03-12T18:58:08.780Z,105.83
2019-03-12T19:00:43.113Z,82.63
2019-03-12T19:03:15.384Z,87.73
2019-03-12T19:05:46.277Z,85.10
2019-03-12T19:08:17.390Z,82.70
2019-03-12T19:10:48.338Z,65.07
2019-03-12T19:13:19.344Z,59.10
2019-03-12T19:15:50.376Z,66.80
2019-03-12T19:18:27.663Z,48.70
2019-03-12T19:20:58.668Z,49.43
2019-03-12T19:23:29.644Z,69.00
2019-03-12T19:26:02.114Z,46.57
2019-03-12T19:28:33.123Z,56.17
2019-03-12T19:31:05.673Z,56.77
2019-03-12T19:33:37.589Z,53.67
2019-03-12T19:36:08.521Z,57.70
2019-03-12T19:38:39.457Z,85.03
2019-03-12T19:41:10.375Z,105.53
2019-03-12T19:43:41.308Z,114.67
2019-03-12T19:46:12.232Z,105.33
2019-03-12T19:48:44.115Z,120.20
2019-03-12T19:51:15.020Z,179.23
2019-03-12T19:53:45.962Z,171.60
2019-03-12T19:56:16.887Z,165.23
2019-03-12T19:58:47.840Z,170.30
2019-03-12T20:01:19.265Z,216.40
2019-03-12T20:03:51.868Z,182.17
2019-03-12T20:06:22.855Z,181.83
2019-03-12T20:08:56.900Z,202.27
2019-03-12T20:12:00.572Z,208.93
2019-03-12T20:15:06.717Z,215.90
2019-03-12T20:18:15.728Z,225.70
2019-03-12T20:20:59.402Z,242.77
2019-03-12T20:23:41.978Z,211.47
2019-03-12T20:26:49.849Z,173.10
2019-03-12T20:29:35.524Z,162.60
2019-03-12T20:32:31.875Z,156.90
2019-03-12T20:35:28.464Z,165.37
2019-03-12T20:38:30.229Z,154.43
2019-03-12T20:41:12.633Z,156.70
2019-03-12T20:44:12.136Z,167.93
2019-03-12T20:47:10.148Z,141.43
2019-03-12T20:50:03.676Z,181.67
2019-03-12T20:52:54.043Z,234.70
2019-03-12T20:55:48.383Z,200.63
2019-03-12T20:58:38.589Z,168.53
2019-03-12T21:01:28.044Z,154.53
2019-03-12T21:04:13.870Z,134.37
2019-03-12T21:07:10.304Z,136.73
2019-03-12T21:10:17.366Z,127.20
2019-03-12T21:13:17.171Z,134.93
2019-03-12T21:16:03.030Z,149.63
2019-03-12T21:19:10.039Z,152.10
2019-03-12T21:21:49.698Z,136.67
2019-03-12T21:24:47.877Z,134.43
2019-03-12T21:27:27.716Z,141.90
2019-03-12T21:29:59.068Z,140.27
2019-03-12T21:32:30.055Z,128.70
2019-03-12T21:35:00.994Z,144.60
2019-03-12T21:37:31.915Z,208.87
2019-03-12T21:40:02.854Z,158.90
2019-03-12T21:42:33.780Z,163.83
2019-03-12T21:45:07.554Z,172.40
2019-03-12T21:47:38.470Z,156.30
2019-03-12T21:50:10.629Z,135.67
2019-03-12T21:52:41.530Z,127.47
2019-03-12T21:55:14.483Z,105.73
2019-03-12T21:57:45.389Z,102.43
2019-03-12T22:00:19.081Z,83.20
2019-03-12T22:02:50.013Z,73.13
2019-03-12T22:05:20.940Z,89.90
2019-03-12T22:07:51.847Z,91.20
2019-03-12T22:10:23.675Z,82.23
2019-03-12T22:12:54.571Z,82.43
2019-03-12T22:15:29.536Z,89.33
2019-03-12T22:17:59.184Z,102.50
2019-03-12T22:20:30.916Z,94.00
2019-03-12T22:23:15.549Z,95.47
2019-03-12T22:25:46.495Z,147.73
2019-03-12T22:28:18.234Z,122.27
2019-03-12T22:30:50.170Z,131.73
2019-03-12T22:33:21.151Z,108.73
2019-03-12T22:35:54.756Z,94.77
2019-03-12T22:38:25.743Z,83.47
2019-03-12T22:40:56.680Z,80.37
2019-03-12T22:43:27.588Z,88.00
2019-03-12T22:45:59.364Z,102.17
2019-03-12T22:48:30.268Z,99.27
2019-03-12T22:51:01.197Z,88.50
2019-03-12T22:53:33.760Z,76.30
2019-03-12T22:56:06.772Z,81.27
2019-03-12T22:58:37.681Z,66.10
2019-03-12T23:01:08.696Z,73.37
2019-03-12T23:03:39.610Z,63.43
2019-03-12T23:06:11.549Z,62.20
2019-03-12T23:08:42.473Z,33.80
2019-03-12T23:11:13.434Z,54.00
2019-03-12T23:13:44.364Z,29.57
2019-03-12T23:16:15.344Z,29.80
2019-03-12T23:18:46.272Z,21.93
2019-03-12T23:21:17.250Z,23.17
2019-03-12T23:23:48.159Z,19.33
2019-03-12T23:26:19.133Z,21.57
2019-03-12T23:28:50.866Z,22.87
2019-03-12T23:31:23.314Z,20.43
2019-03-12T23:33:54.308Z,20.83
2019-03-12T23:36:25.273Z,21.40
2019-03-12T23:38:56.213Z,17.97
2019-03-12T23:41:27.170Z,21.07
2019-03-12T23:43:58.160Z,21.97
2019-03-12T23:46:30.741Z,20.70
2019-03-12T23:49:01.676Z,17.50
2019-03-12T23:51:32.676Z,14.70
2019-03-12T23:54:03.601Z,16.03
2019-03-12T23:56:34.558Z,18.23
2019-03-12T23:59:05.574Z,15.50
